sensor_id;sensor_type;location;lat;lon;timestamp;temperature;humidity
61016;DHT22;46902;52.920;6.536;2023-08-01T00:00:00;16.70;99.90
61016;DHT22;46902;52.920;6.536;2023-08-01T00:02:26;16.70;99.90
61016;DHT22;46902;52.920;6.536;2023-08-01T00:04:51;16.70;99.90
61016;DHT22;46902;52.920;6.536;2023-08-01T00:07:17;16.80;99.90
61016;DHT22;46902;52.920;6.536;2023-08-01T00:09:42;16.60;99.90
61016;DHT22;46902;52.920;6.536;2023-08-01T00:12:08;16.70;99.90
61016;DHT22;46902;52.920;6.536;2023-08-01T00:14:35;16.70;99.90
61016;DHT22;46902;52.920;6.536;2023-08-01T00:17:00;16.60;99.90
61016;DHT22;46902;52.920;6.536;2023-08-01T00:19:26;16.60;99.90
61016;DHT22;46902;52.920;6.536;2023-08-01T00:21:51;16.60;99.90
61016;DHT22;46902;52.920;6.536;2023-08-01T00:24:17;16.60;99.90
61016;DHT22;46902;52.920;6.536;2023-08-01T00:26:42;16.70;99.90
61016;DHT22;46902;52.920;6.536;2023-08-01T00:29:08;16.70;99.90
61016;DHT22;46902;52.920;6.536;2023-08-01T00:31:34;16.60;99.90
61016;DHT22;46902;52.920;6.536;2023-08-01T00:33:59;16.60;99.90
61016;DHT22;46902;52.920;6.536;2023-08-01T00:36:25;16.60;99.90
61016;DHT22;46902;52.920;6.536;2023-08-01T00:38:50;16.50;99.90
61016;DHT22;46902;52.920;6.536;2023-08-01T00:41:16;16.50;99.90
61016;DHT22;46902;52.920;6.536;2023-08-01T00:43:42;16.60;99.90
61016;DHT22;46902;52.920;6.536;2023-08-01T00:46:08;16.50;99.90
61016;DHT22;46902;52.920;6.536;2023-08-01T00:48:34;16.40;99.90
61016;DHT22;46902;52.920;6.536;2023-08-01T00:51:06;16.50;99.90
61016;DHT22;46902;52.920;6.536;2023-08-01T00:53:32;16.50;99.90
61016;DHT22;46902;52.920;6.536;2023-08-01T00:55:59;16.50;99.90
61016;DHT22;46902;52.920;6.536;2023-08-01T00:58:25;16.50;99.90
61016;DHT22;46902;52.920;6.536;2023-08-01T01:00:50;16.50;99.90
61016;DHT22;46902;52.920;6.536;2023-08-01T01:03:16;16.50;99.90
61016;DHT22;46902;52.920;6.536;2023-08-01T01:06:12;16.40;99.90
61016;DHT22;46902;52.920;6.536;2023-08-01T01:08:41;16.40;99.90
61016;DHT22;46902;52.920;6.536;2023-08-01T01:11:07;16.40;99.90
61016;DHT22;46902;52.920;6.536;2023-08-01T01:13:33;16.50;99.90
61016;DHT22;46902;52.920;6.536;2023-08-01T01:15:59;16.30;99.90
61016;DHT22;46902;52.920;6.536;2023-08-01T01:18:25;16.40;99.90
61016;DHT22;46902;52.920;6.536;2023-08-01T01:20:51;16.50;99.90
61016;DHT22;46902;52.920;6.536;2023-08-01T01:23:16;16.40;99.90
61016;DHT22;46902;52.920;6.536;2023-08-01T01:25:43;16.50;99.90
61016;DHT22;46902;52.920;6.536;2023-08-01T01:28:11;16.50;99.90
61016;DHT22;46902;52.920;6.536;2023-08-01T01:30:38;16.40;99.90
61016;DHT22;46902;52.920;6.536;2023-08-01T01:33:04;16.50;99.90
61016;DHT22;46902;52.920;6.536;2023-08-01T01:35:33;16.50;99.90
61016;DHT22;46902;52.920;6.536;2023-08-01T01:37:58;16.50;99.90
61016;DHT22;46902;52.920;6.536;2023-08-01T01:40:31;16.60;99.90
61016;DHT22;46902;52.920;6.536;2023-08-01T01:42:57;16.60;99.90
61016;DHT22;46902;52.920;6.536;2023-08-01T01:45:23;16.50;99.90
61016;DHT22;46902;52.920;6.536;2023-08-01T01:47:48;16.60;99.90
61016;DHT22;46902;52.920;6.536;2023-08-01T01:50:14;16.50;99.90
61016;DHT22;46902;52.920;6.536;2023-08-01T01:52:39;16.50;99.90
61016;DHT22;46902;52.920;6.536;2023-08-01T01:55:05;16.40;99.90
61016;DHT22;46902;52.920;6.536;2023-08-01T01:57:31;16.50;99.90
61016;DHT22;46902;52.920;6.536;2023-08-01T01:59:56;16.40;99.90
61016;DHT22;46902;52.920;6.536;2023-08-01T02:02:22;16.40;99.90
61016;DHT22;46902;52.920;6.536;2023-08-01T02:04:49;16.50;99.90
61016;DHT22;46902;52.920;6.536;2023-08-01T02:07:15;16.30;99.90
61016;DHT22;46902;52.920;6.536;2023-08-01T02:09:40;16.40;99.90
61016;DHT22;46902;52.920;6.536;2023-08-01T02:12:06;16.40;99.90
61016;DHT22;46902;52.920;6.536;2023-08-01T02:14:35;16.20;99.90
61016;DHT22;46902;52.920;6.536;2023-08-01T02:17:00;16.20;99.90
61016;DHT22;46902;52.920;6.536;2023-08-01T02:19:26;16.10;99.90
61016;DHT22;46902;52.920;6.536;2023-08-01T02:21:52;16.10;99.90
61016;DHT22;46902;52.920;6.536;2023-08-01T02:24:18;16.10;99.90
61016;DHT22;46902;52.920;6.536;2023-08-01T02:26:44;16.00;99.90
61016;DHT22;46902;52.920;6.536;2023-08-01T02:29:09;16.00;99.90
61016;DHT22;46902;52.920;6.536;2023-08-01T02:31:35;15.90;99.90
61016;DHT22;46902;52.920;6.536;2023-08-01T02:34:01;15.90;99.90
61016;DHT22;46902;52.920;6.536;2023-08-01T02:36:26;15.80;99.90
61016;DHT22;46902;52.920;6.536;2023-08-01T02:38:52;15.80;99.90
61016;DHT22;46902;52.920;6.536;2023-08-01T02:41:17;15.80;99.90
61016;DHT22;46902;52.920;6.536;2023-08-01T02:43:43;15.70;99.90
61016;DHT22;46902;52.920;6.536;2023-08-01T02:46:08;15.80;99.90
61016;DHT22;46902;52.920;6.536;2023-08-01T02:48:34;15.70;99.90
61016;DHT22;46902;52.920;6.536;2023-08-01T02:51:01;15.80;99.90
61016;DHT22;46902;52.920;6.536;2023-08-01T02:53:27;15.60;99.90
61016;DHT22;46902;52.920;6.536;2023-08-01T02:55:52;15.60;99.90
61016;DHT22;46902;52.920;6.536;2023-08-01T02:58:18;15.70;99.90
61016;DHT22;46902;52.920;6.536;2023-08-01T03:00:43;15.70;99.90
61016;DHT22;46902;52.920;6.536;2023-08-01T03:03:10;15.80;99.90
61016;DHT22;46902;52.920;6.536;2023-08-01T03:05:36;15.70;99.90
61016;DHT22;46902;52.920;6.536;2023-08-01T03:08:04;15.70;99.90
61016;DHT22;46902;52.920;6.536;2023-08-01T03:10:29;15.70;99.90
61016;DHT22;46902;52.920;6.536;2023-08-01T03:12:55;15.70;99.90
61016;DHT22;46902;52.920;6.536;2023-08-01T03:15:21;15.70;99.90
61016;DHT22;46902;52.920;6.536;2023-08-01T03:17:46;15.80;99.90
61016;DHT22;46902;52.920;6.536;2023-08-01T03:20:12;15.80;99.90
61016;DHT22;46902;52.920;6.536;2023-08-01T03:22:41;15.90;99.90
61016;DHT22;46902;52.920;6.536;2023-08-01T03:25:07;15.90;99.90
61016;DHT22;46902;52.920;6.536;2023-08-01T03:27:34;15.90;99.90
61016;DHT22;46902;52.920;6.536;2023-08-01T03:29:59;15.90;99.90
61016;DHT22;46902;52.920;6.536;2023-08-01T03:32:25;15.90;99.90
61016;DHT22;46902;52.920;6.536;2023-08-01T03:34:51;15.90;99.90
61016;DHT22;46902;52.920;6.536;2023-08-01T03:37:17;15.90;99.90
61016;DHT22;46902;52.920;6.536;2023-08-01T03:39:43;15.80;99.90
61016;DHT22;46902;52.920;6.536;2023-08-01T03:42:09;15.80;99.90
61016;DHT22;46902;52.920;6.536;2023-08-01T03:44:34;15.80;99.90
61016;DHT22;46902;52.920;6.536;2023-08-01T03:47:00;15.80;99.90
61016;DHT22;46902;52.920;6.536;2023-08-01T03:49:26;15.80;99.90
61016;DHT22;46902;52.920;6.536;2023-08-01T03:51:51;15.70;99.90
61016;DHT22;46902;52.920;6.536;2023-08-01T03:54:17;15.70;99.90
61016;DHT22;46902;52.920;6.536;2023-08-01T03:56:42;15.70;99.90
61016;DHT22;46902;52.920;6.536;2023-08-01T03:59:09;15.70;99.90
61016;DHT22;46902;52.920;6.536;2023-08-01T04:01:35;15.70;99.90
61016;DHT22;46902;52.920;6.536;2023-08-01T04:04:01;15.60;99.90
61016;DHT22;46902;52.920;6.536;2023-08-01T04:06:26;15.60;99.90
61016;DHT22;46902;52.920;6.536;2023-08-01T04:08:52;15.60;99.90
61016;DHT22;46902;52.920;6.536;2023-08-01T04:11:20;15.50;99.90
61016;DHT22;46902;52.920;6.536;2023-08-01T04:13:46;15.60;99.90
61016;DHT22;46902;52.920;6.536;2023-08-01T04:16:11;15.60;99.90
61016;DHT22;46902;52.920;6.536;2023-08-01T04:18:37;15.50;99.90
61016;DHT22;46902;52.920;6.536;2023-08-01T04:21:03;15.50;99.90
61016;DHT22;46902;52.920;6.536;2023-08-01T04:23:28;15.40;99.90
61016;DHT22;46902;52.920;6.536;2023-08-01T04:25:54;15.40;99.90
61016;DHT22;46902;52.920;6.536;2023-08-01T04:28:19;15.30;99.90
61016;DHT22;46902;52.920;6.536;2023-08-01T04:30:49;15.30;99.90
61016;DHT22;46902;52.920;6.536;2023-08-01T04:33:15;15.30;99.90
61016;DHT22;46902;52.920;6.536;2023-08-01T04:35:41;15.20;99.90
61016;DHT22;46902;52.920;6.536;2023-08-01T04:38:06;15.30;99.90
61016;DHT22;46902;52.920;6.536;2023-08-01T04:40:34;15.20;99.90
61016;DHT22;46902;52.920;6.536;2023-08-01T04:43:01;15.20;99.90
61016;DHT22;46902;52.920;6.536;2023-08-01T04:45:27;15.20;99.90
61016;DHT22;46902;52.920;6.536;2023-08-01T04:47:52;15.20;99.90
61016;DHT22;46902;52.920;6.536;2023-08-01T04:50:18;15.10;99.90
61016;DHT22;46902;52.920;6.536;2023-08-01T04:52:43;15.20;99.90
61016;DHT22;46902;52.920;6.536;2023-08-01T04:55:09;15.10;99.90
61016;DHT22;46902;52.920;6.536;2023-08-01T04:57:35;15.10;99.90
61016;DHT22;46902;52.920;6.536;2023-08-01T05:00:01;15.10;99.90
61016;DHT22;46902;52.920;6.536;2023-08-01T05:02:26;15.10;99.90
61016;DHT22;46902;52.920;6.536;2023-08-01T05:04:52;15.10;99.90
61016;DHT22;46902;52.920;6.536;2023-08-01T05:07:17;15.20;99.90
61016;DHT22;46902;52.920;6.536;2023-08-01T05:09:43;15.10;99.90
61016;DHT22;46902;52.920;6.536;2023-08-01T05:12:08;15.20;99.90
61016;DHT22;46902;52.920;6.536;2023-08-01T05:14:34;15.20;99.90
61016;DHT22;46902;52.920;6.536;2023-08-01T05:17:00;15.30;99.90
61016;DHT22;46902;52.920;6.536;2023-08-01T05:19:26;15.30;99.90
61016;DHT22;46902;52.920;6.536;2023-08-01T05:21:51;15.30;99.90
61016;DHT22;46902;52.920;6.536;2023-08-01T05:24:17;15.40;99.90
61016;DHT22;46902;52.920;6.536;2023-08-01T05:26:43;15.40;99.90
61016;DHT22;46902;52.920;6.536;2023-08-01T05:29:08;15.60;99.90
61016;DHT22;46902;52.920;6.536;2023-08-01T05:31:34;15.60;99.90
61016;DHT22;46902;52.920;6.536;2023-08-01T05:33:59;15.60;99.90
61016;DHT22;46902;52.920;6.536;2023-08-01T05:36:25;15.60;99.90
61016;DHT22;46902;52.920;6.536;2023-08-01T05:38:50;15.70;99.90
61016;DHT22;46902;52.920;6.536;2023-08-01T05:41:16;15.70;99.90
61016;DHT22;46902;52.920;6.536;2023-08-01T05:43:42;15.60;99.90
61016;DHT22;46902;52.920;6.536;2023-08-01T05:46:07;15.60;99.90
61016;DHT22;46902;52.920;6.536;2023-08-01T05:48:33;15.60;99.90
61016;DHT22;46902;52.920;6.536;2023-08-01T05:50:58;15.60;99.90
61016;DHT22;46902;52.920;6.536;2023-08-01T05:53:24;15.50;99.90
61016;DHT22;46902;52.920;6.536;2023-08-01T05:55:50;15.60;99.90
61016;DHT22;46902;52.920;6.536;2023-08-01T05:58:15;15.60;99.90
61016;DHT22;46902;52.920;6.536;2023-08-01T06:00:41;15.70;99.90
61016;DHT22;46902;52.920;6.536;2023-08-01T06:03:07;15.70;99.90
61016;DHT22;46902;52.920;6.536;2023-08-01T06:05:32;15.80;99.90
61016;DHT22;46902;52.920;6.536;2023-08-01T06:07:58;15.90;99.90
61016;DHT22;46902;52.920;6.536;2023-08-01T06:10:24;16.00;99.90
61016;DHT22;46902;52.920;6.536;2023-08-01T06:12:49;16.10;99.90
61016;DHT22;46902;52.920;6.536;2023-08-01T06:15:15;16.10;99.90
61016;DHT22;46902;52.920;6.536;2023-08-01T06:17:41;16.10;99.90
61016;DHT22;46902;52.920;6.536;2023-08-01T06:20:07;16.10;99.90
61016;DHT22;46902;52.920;6.536;2023-08-01T06:22:32;16.10;99.90
61016;DHT22;46902;52.920;6.536;2023-08-01T06:24:58;16.10;99.90
61016;DHT22;46902;52.920;6.536;2023-08-01T06:27:24;16.20;99.90
61016;DHT22;46902;52.920;6.536;2023-08-01T06:29:50;16.20;99.90
61016;DHT22;46902;52.920;6.536;2023-08-01T06:32:16;16.10;99.90
61016;DHT22;46902;52.920;6.536;2023-08-01T06:34:41;16.10;99.90
61016;DHT22;46902;52.920;6.536;2023-08-01T06:37:07;16.10;99.90
61016;DHT22;46902;52.920;6.536;2023-08-01T06:39:32;16.10;99.90
61016;DHT22;46902;52.920;6.536;2023-08-01T06:41:58;16.10;99.90
61016;DHT22;46902;52.920;6.536;2023-08-01T06:44:23;16.20;99.90
61016;DHT22;46902;52.920;6.536;2023-08-01T06:46:49;16.20;99.90
61016;DHT22;46902;52.920;6.536;2023-08-01T06:49:15;16.10;99.90
61016;DHT22;46902;52.920;6.536;2023-08-01T06:51:40;16.10;99.90
61016;DHT22;46902;52.920;6.536;2023-08-01T06:54:08;16.10;99.90
61016;DHT22;46902;52.920;6.536;2023-08-01T06:56:33;16.10;99.90
61016;DHT22;46902;52.920;6.536;2023-08-01T06:58:59;16.10;99.90
61016;DHT22;46902;52.920;6.536;2023-08-01T07:01:24;16.10;99.90
61016;DHT22;46902;52.920;6.536;2023-08-01T07:03:50;16.20;99.90
61016;DHT22;46902;52.920;6.536;2023-08-01T07:06:19;16.30;99.90
61016;DHT22;46902;52.920;6.536;2023-08-01T07:08:44;16.30;99.90
61016;DHT22;46902;52.920;6.536;2023-08-01T07:11:10;16.40;99.90
61016;DHT22;46902;52.920;6.536;2023-08-01T07:13:35;16.60;99.90
61016;DHT22;46902;52.920;6.536;2023-08-01T07:16:01;16.60;99.90
61016;DHT22;46902;52.920;6.536;2023-08-01T07:18:27;16.70;99.90
61016;DHT22;46902;52.920;6.536;2023-08-01T07:21:03;16.80;99.90
61016;DHT22;46902;52.920;6.536;2023-08-01T07:23:30;16.90;99.90
61016;DHT22;46902;52.920;6.536;2023-08-01T07:25:55;16.90;99.90
61016;DHT22;46902;52.920;6.536;2023-08-01T07:28:21;17.00;99.90
61016;DHT22;46902;52.920;6.536;2023-08-01T07:30:47;17.10;99.90
61016;DHT22;46902;52.920;6.536;2023-08-01T07:33:12;17.20;99.90
61016;DHT22;46902;52.920;6.536;2023-08-01T07:35:38;17.00;99.90
61016;DHT22;46902;52.920;6.536;2023-08-01T07:38:03;17.00;99.90
61016;DHT22;46902;52.920;6.536;2023-08-01T07:40:29;16.90;99.90
61016;DHT22;46902;52.920;6.536;2023-08-01T07:42:55;16.80;99.90
61016;DHT22;46902;52.920;6.536;2023-08-01T07:45:20;16.80;99.90
61016;DHT22;46902;52.920;6.536;2023-08-01T07:47:46;16.70;99.90
61016;DHT22;46902;52.920;6.536;2023-08-01T07:50:11;16.70;99.90
61016;DHT22;46902;52.920;6.536;2023-08-01T07:52:37;16.60;99.90
61016;DHT22;46902;52.920;6.536;2023-08-01T07:55:03;16.60;99.90
61016;DHT22;46902;52.920;6.536;2023-08-01T07:57:28;16.50;99.90
61016;DHT22;46902;52.920;6.536;2023-08-01T07:59:54;16.40;99.90
61016;DHT22;46902;52.920;6.536;2023-08-01T08:02:20;16.40;99.90
61016;DHT22;46902;52.920;6.536;2023-08-01T08:04:45;16.40;99.90
61016;DHT22;46902;52.920;6.536;2023-08-01T08:07:11;16.50;99.90
61016;DHT22;46902;52.920;6.536;2023-08-01T08:09:37;16.60;99.90
61016;DHT22;46902;52.920;6.536;2023-08-01T08:12:02;16.70;99.90
61016;DHT22;46902;52.920;6.536;2023-08-01T08:14:28;16.70;99.90
61016;DHT22;46902;52.920;6.536;2023-08-01T08:16:55;16.70;99.90
61016;DHT22;46902;52.920;6.536;2023-08-01T08:19:21;16.70;99.90
61016;DHT22;46902;52.920;6.536;2023-08-01T08:21:49;16.60;99.90
61016;DHT22;46902;52.920;6.536;2023-08-01T08:24:15;16.50;99.90
61016;DHT22;46902;52.920;6.536;2023-08-01T08:26:40;16.50;99.90
61016;DHT22;46902;52.920;6.536;2023-08-01T08:29:06;16.40;99.90
61016;DHT22;46902;52.920;6.536;2023-08-01T08:31:31;16.40;99.90
61016;DHT22;46902;52.920;6.536;2023-08-01T08:33:57;16.30;99.90
61016;DHT22;46902;52.920;6.536;2023-08-01T08:36:22;16.30;99.90
61016;DHT22;46902;52.920;6.536;2023-08-01T08:38:48;16.20;99.90
61016;DHT22;46902;52.920;6.536;2023-08-01T08:41:20;16.30;99.90
61016;DHT22;46902;52.920;6.536;2023-08-01T08:43:48;16.30;99.90
61016;DHT22;46902;52.920;6.536;2023-08-01T08:46:15;16.30;99.90
61016;DHT22;46902;52.920;6.536;2023-08-01T08:48:42;16.20;99.90
61016;DHT22;46902;52.920;6.536;2023-08-01T08:51:08;16.20;99.90
61016;DHT22;46902;52.920;6.536;2023-08-01T08:53:35;16.20;99.90
61016;DHT22;46902;52.920;6.536;2023-08-01T08:56:01;16.30;99.90
61016;DHT22;46902;52.920;6.536;2023-08-01T08:58:29;16.20;99.90
61016;DHT22;46902;52.920;6.536;2023-08-01T09:00:55;16.20;99.90
61016;DHT22;46902;52.920;6.536;2023-08-01T09:03:21;16.20;99.90
61016;DHT22;46902;52.920;6.536;2023-08-01T09:05:51;16.20;99.90
61016;DHT22;46902;52.920;6.536;2023-08-01T09:08:21;16.30;99.90
61016;DHT22;46902;52.920;6.536;2023-08-01T09:10:47;16.40;99.90
61016;DHT22;46902;52.920;6.536;2023-08-01T09:13:14;16.40;99.90
61016;DHT22;46902;52.920;6.536;2023-08-01T09:15:41;16.40;99.90
61016;DHT22;46902;52.920;6.536;2023-08-01T09:18:08;16.50;99.90
61016;DHT22;46902;52.920;6.536;2023-08-01T09:20:46;16.40;99.90
61016;DHT22;46902;52.920;6.536;2023-08-01T09:23:11;16.50;99.90
61016;DHT22;46902;52.920;6.536;2023-08-01T09:25:38;16.50;99.90
61016;DHT22;46902;52.920;6.536;2023-08-01T09:28:23;16.50;99.90
61016;DHT22;46902;52.920;6.536;2023-08-01T09:30:54;16.50;99.90
61016;DHT22;46902;52.920;6.536;2023-08-01T09:33:21;16.50;99.90
61016;DHT22;46902;52.920;6.536;2023-08-01T09:35:50;16.50;99.90
61016;DHT22;46902;52.920;6.536;2023-08-01T09:38:16;16.50;99.90
61016;DHT22;46902;52.920;6.536;2023-08-01T09:40:43;16.70;99.90
61016;DHT22;46902;52.920;6.536;2023-08-01T09:43:11;16.80;99.90
61016;DHT22;46902;52.920;6.536;2023-08-01T09:45:36;17.00;99.90
61016;DHT22;46902;52.920;6.536;2023-08-01T09:48:02;17.10;99.90
61016;DHT22;46902;52.920;6.536;2023-08-01T09:50:28;17.10;99.90
61016;DHT22;46902;52.920;6.536;2023-08-01T09:52:54;17.30;99.90
61016;DHT22;46902;52.920;6.536;2023-08-01T09:55:31;17.20;99.90
61016;DHT22;46902;52.920;6.536;2023-08-01T09:57:58;17.40;99.90
61016;DHT22;46902;52.920;6.536;2023-08-01T10:00:28;17.40;99.90
61016;DHT22;46902;52.920;6.536;2023-08-01T10:02:58;17.40;99.90
61016;DHT22;46902;52.920;6.536;2023-08-01T10:05:32;17.50;99.90
61016;DHT22;46902;52.920;6.536;2023-08-01T10:08:00;17.50;99.90
61016;DHT22;46902;52.920;6.536;2023-08-01T10:10:27;17.50;99.90
61016;DHT22;46902;52.920;6.536;2023-08-01T10:12:55;17.40;99.90
61016;DHT22;46902;52.920;6.536;2023-08-01T10:15:21;17.40;99.90
61016;DHT22;46902;52.920;6.536;2023-08-01T10:17:48;17.30;99.90
61016;DHT22;46902;52.920;6.536;2023-08-01T10:20:14;17.10;99.90
61016;DHT22;46902;52.920;6.536;2023-08-01T10:22:41;17.10;99.90
61016;DHT22;46902;52.920;6.536;2023-08-01T10:25:08;17.10;99.90
61016;DHT22;46902;52.920;6.536;2023-08-01T10:27:34;17.10;99.90
61016;DHT22;46902;52.920;6.536;2023-08-01T10:30:03;16.90;99.90
61016;DHT22;46902;52.920;6.536;2023-08-01T10:32:37;17.10;99.90
61016;DHT22;46902;52.920;6.536;2023-08-01T10:35:04;17.20;99.90
61016;DHT22;46902;52.920;6.536;2023-08-01T10:37:44;17.20;99.90
61016;DHT22;46902;52.920;6.536;2023-08-01T10:40:12;17.20;99.90
61016;DHT22;46902;52.920;6.536;2023-08-01T10:42:42;17.10;99.90
61016;DHT22;46902;52.920;6.536;2023-08-01T10:45:21;17.00;99.90
61016;DHT22;46902;52.920;6.536;2023-08-01T10:47:47;17.00;99.90
61016;DHT22;46902;52.920;6.536;2023-08-01T10:50:14;16.90;99.90
61016;DHT22;46902;52.920;6.536;2023-08-01T10:52:41;17.10;99.90
61016;DHT22;46902;52.920;6.536;2023-08-01T10:55:07;17.40;99.90
61016;DHT22;46902;52.920;6.536;2023-08-01T10:57:36;17.90;99.90
61016;DHT22;46902;52.920;6.536;2023-08-01T11:00:03;18.40;99.90
61016;DHT22;46902;52.920;6.536;2023-08-01T11:02:34;18.70;99.90
61016;DHT22;46902;52.920;6.536;2023-08-01T11:05:02;19.00;99.90
61016;DHT22;46902;52.920;6.536;2023-08-01T11:07:29;19.40;99.90
61016;DHT22;46902;52.920;6.536;2023-08-01T11:12:38;19.80;99.90
61016;DHT22;46902;52.920;6.536;2023-08-01T11:15:05;20.00;99.90
61016;DHT22;46902;52.920;6.536;2023-08-01T11:17:33;20.00;99.90
61016;DHT22;46902;52.920;6.536;2023-08-01T11:20:09;20.00;99.90
61016;DHT22;46902;52.920;6.536;2023-08-01T11:22:36;20.00;99.90
61016;DHT22;46902;52.920;6.536;2023-08-01T11:25:03;20.20;99.90
61016;DHT22;46902;52.920;6.536;2023-08-01T11:27:29;20.50;99.90
61016;DHT22;46902;52.920;6.536;2023-08-01T11:29:55;20.60;99.90
61016;DHT22;46902;52.920;6.536;2023-08-01T11:32:21;20.80;99.90
61016;DHT22;46902;52.920;6.536;2023-08-01T11:34:48;20.60;99.90
61016;DHT22;46902;52.920;6.536;2023-08-01T11:37:18;20.40;99.90
61016;DHT22;46902;52.920;6.536;2023-08-01T11:39:45;20.10;99.90
61016;DHT22;46902;52.920;6.536;2023-08-01T11:42:18;19.80;99.90
61016;DHT22;46902;52.920;6.536;2023-08-01T11:44:44;19.50;99.90
61016;DHT22;46902;52.920;6.536;2023-08-01T11:47:14;19.50;99.90
61016;DHT22;46902;52.920;6.536;2023-08-01T11:49:48;19.90;99.90
61016;DHT22;46902;52.920;6.536;2023-08-01T11:52:27;20.20;99.90
61016;DHT22;46902;52.920;6.536;2023-08-01T11:54:54;20.20;99.90
61016;DHT22;46902;52.920;6.536;2023-08-01T11:57:21;19.90;99.90
61016;DHT22;46902;52.920;6.536;2023-08-01T11:59:48;19.60;99.90
61016;DHT22;46902;52.920;6.536;2023-08-01T12:02:40;19.30;99.90
61016;DHT22;46902;52.920;6.536;2023-08-01T12:05:06;19.00;99.90
61016;DHT22;46902;52.920;6.536;2023-08-01T12:07:34;18.90;99.90
61016;DHT22;46902;52.920;6.536;2023-08-01T12:10:00;18.90;99.90
61016;DHT22;46902;52.920;6.536;2023-08-01T12:12:27;19.00;99.90
61016;DHT22;46902;52.920;6.536;2023-08-01T12:14:53;19.20;99.90
61016;DHT22;46902;52.920;6.536;2023-08-01T12:17:20;19.40;99.90
61016;DHT22;46902;52.920;6.536;2023-08-01T12:19:46;19.70;99.90
61016;DHT22;46902;52.920;6.536;2023-08-01T12:22:12;19.90;99.90
61016;DHT22;46902;52.920;6.536;2023-08-01T12:24:38;20.20;99.90
61016;DHT22;46902;52.920;6.536;2023-08-01T12:27:06;20.50;99.90
61016;DHT22;46902;52.920;6.536;2023-08-01T12:29:32;20.80;99.90
61016;DHT22;46902;52.920;6.536;2023-08-01T12:31:57;20.80;99.90
61016;DHT22;46902;52.920;6.536;2023-08-01T12:34:23;20.70;99.90
61016;DHT22;46902;52.920;6.536;2023-08-01T12:36:48;20.30;99.90
61016;DHT22;46902;52.920;6.536;2023-08-01T12:39:14;19.90;99.90
61016;DHT22;46902;52.920;6.536;2023-08-01T12:41:40;19.60;99.90
61016;DHT22;46902;52.920;6.536;2023-08-01T12:44:05;19.50;99.90
61016;DHT22;46902;52.920;6.536;2023-08-01T12:46:31;19.40;99.90
61016;DHT22;46902;52.920;6.536;2023-08-01T12:48:57;19.30;99.90
61016;DHT22;46902;52.920;6.536;2023-08-01T12:51:23;19.20;99.90
61016;DHT22;46902;52.920;6.536;2023-08-01T12:53:48;19.20;99.90
61016;DHT22;46902;52.920;6.536;2023-08-01T12:56:14;19.30;99.90
61016;DHT22;46902;52.920;6.536;2023-08-01T12:58:40;19.40;99.90
61016;DHT22;46902;52.920;6.536;2023-08-01T13:01:05;19.50;99.90
61016;DHT22;46902;52.920;6.536;2023-08-01T13:03:31;19.50;99.90
61016;DHT22;46902;52.920;6.536;2023-08-01T13:05:57;19.50;99.90
61016;DHT22;46902;52.920;6.536;2023-08-01T13:08:23;19.50;99.90
61016;DHT22;46902;52.920;6.536;2023-08-01T13:10:49;19.60;99.90
61016;DHT22;46902;52.920;6.536;2023-08-01T13:13:16;19.60;99.90
61016;DHT22;46902;52.920;6.536;2023-08-01T13:15:41;19.80;99.90
61016;DHT22;46902;52.920;6.536;2023-08-01T13:18:07;20.10;99.90
61016;DHT22;46902;52.920;6.536;2023-08-01T13:20:33;20.20;99.90
61016;DHT22;46902;52.920;6.536;2023-08-01T13:22:58;20.40;99.90
61016;DHT22;46902;52.920;6.536;2023-08-01T13:25:24;20.70;99.90
61016;DHT22;46902;52.920;6.536;2023-08-01T13:27:49;20.80;99.90
61016;DHT22;46902;52.920;6.536;2023-08-01T13:30:15;20.90;99.90
61016;DHT22;46902;52.920;6.536;2023-08-01T13:32:43;20.90;99.90
61016;DHT22;46902;52.920;6.536;2023-08-01T13:35:09;20.80;99.90
61016;DHT22;46902;52.920;6.536;2023-08-01T13:37:35;20.80;99.90
61016;DHT22;46902;52.920;6.536;2023-08-01T13:40:00;20.80;99.90
61016;DHT22;46902;52.920;6.536;2023-08-01T13:42:26;20.80;99.90
61016;DHT22;46902;52.920;6.536;2023-08-01T13:44:54;20.90;99.90
61016;DHT22;46902;52.920;6.536;2023-08-01T13:47:19;20.80;99.90
61016;DHT22;46902;52.920;6.536;2023-08-01T13:49:45;20.60;99.90
61016;DHT22;46902;52.920;6.536;2023-08-01T13:52:10;20.50;99.90
61016;DHT22;46902;52.920;6.536;2023-08-01T13:54:36;20.30;99.90
61016;DHT22;46902;52.920;6.536;2023-08-01T13:57:02;20.20;99.90
61016;DHT22;46902;52.920;6.536;2023-08-01T13:59:27;20.20;99.90
61016;DHT22;46902;52.920;6.536;2023-08-01T14:01:53;20.10;99.90
61016;DHT22;46902;52.920;6.536;2023-08-01T14:04:19;20.00;99.90
61016;DHT22;46902;52.920;6.536;2023-08-01T14:06:45;20.00;99.90
61016;DHT22;46902;52.920;6.536;2023-08-01T14:09:10;19.90;99.90
61016;DHT22;46902;52.920;6.536;2023-08-01T14:11:37;19.80;99.90
61016;DHT22;46902;52.920;6.536;2023-08-01T14:14:03;19.60;99.90
61016;DHT22;46902;52.920;6.536;2023-08-01T14:16:29;19.40;99.90
61016;DHT22;46902;52.920;6.536;2023-08-01T14:18:54;19.20;99.90
61016;DHT22;46902;52.920;6.536;2023-08-01T14:21:20;19.10;99.90
61016;DHT22;46902;52.920;6.536;2023-08-01T14:23:46;19.10;99.90
61016;DHT22;46902;52.920;6.536;2023-08-01T14:26:12;19.10;99.90
61016;DHT22;46902;52.920;6.536;2023-08-01T14:28:37;19.00;99.90
61016;DHT22;46902;52.920;6.536;2023-08-01T14:31:03;18.90;99.90
61016;DHT22;46902;52.920;6.536;2023-08-01T14:33:30;18.90;99.90
61016;DHT22;46902;52.920;6.536;2023-08-01T14:35:56;18.80;99.90
61016;DHT22;46902;52.920;6.536;2023-08-01T14:38:22;18.70;99.90
61016;DHT22;46902;52.920;6.536;2023-08-01T14:40:48;18.60;99.90
61016;DHT22;46902;52.920;6.536;2023-08-01T14:43:14;18.60;99.90
61016;DHT22;46902;52.920;6.536;2023-08-01T14:45:40;18.70;99.90
61016;DHT22;46902;52.920;6.536;2023-08-01T14:48:07;18.80;99.90
61016;DHT22;46902;52.920;6.536;2023-08-01T14:50:32;18.80;99.90
61016;DHT22;46902;52.920;6.536;2023-08-01T14:52:58;18.80;99.90
61016;DHT22;46902;52.920;6.536;2023-08-01T14:55:23;18.80;99.90
61016;DHT22;46902;52.920;6.536;2023-08-01T14:57:49;19.00;99.90
61016;DHT22;46902;52.920;6.536;2023-08-01T15:00:15;19.20;99.90
61016;DHT22;46902;52.920;6.536;2023-08-01T15:02:41;19.40;99.90
61016;DHT22;46902;52.920;6.536;2023-08-01T15:05:07;19.60;99.90
61016;DHT22;46902;52.920;6.536;2023-08-01T15:07:33;19.70;99.90
61016;DHT22;46902;52.920;6.536;2023-08-01T15:09:59;19.60;99.90
61016;DHT22;46902;52.920;6.536;2023-08-01T15:12:24;19.60;99.90
61016;DHT22;46902;52.920;6.536;2023-08-01T15:14:55;19.50;99.90
61016;DHT22;46902;52.920;6.536;2023-08-01T15:17:21;19.30;99.90
61016;DHT22;46902;52.920;6.536;2023-08-01T15:19:47;19.10;99.90
61016;DHT22;46902;52.920;6.536;2023-08-01T15:22:14;19.00;99.90
61016;DHT22;46902;52.920;6.536;2023-08-01T15:24:40;18.80;99.90
61016;DHT22;46902;52.920;6.536;2023-08-01T15:27:05;18.80;99.90